Portada
METAR-TAF:

METAR-TAF

Aeropuertos :

Aeropuerto Internacional de Pekín-Capital

Pekín, China

latitud: 39-56N, longitud: 116-17E, altitud: 55 m

Observación

El informe se hizo hace 17 minutos, a las 19:00 UTC
Viento 2 kt con dirección variable
Temperatura 22°C
Humedad 88%
Presión 1001 hPa
Visibilidad: 5000 m
neblina

METAR: ZBAA 181900Z VRB01MPS 5000 BR NSC 22/20 Q1001 NOSIG

Hora: 03:17 (19:17 UTC)

Pronóstico

El informe se hizo hace 3 horas y 57 minutos, a las 15:20 UTC
Pronóstico válido del 18 a las 18 UTC al 19 a las 18 UTC
Viento 8 kt del norte
Visibilidad 10 km o más
sin nubes por debajo de 1500 m y sin presencia de cumulonimbus.

TAF: ZBAA 181520Z 1818/1918 01004MPS CAVOK TX31/1907Z TN20/1821Z

Observaciones y pronósticos meteorológicos de más de 4000 aeropuertos (mensajes METAR y TAF).

Los puntos amarillos y rojos representan las estaciones disponibles.

Ponga el ratón en el punto deseado para ver el nombre de la estación.

Haga clic para ver las observaciones y los pronósticos meteorológicos.

Para cambiar el mapa : haga clic en los botones verdes con una cruz de color negro para hacer un zoom, en el botón verde con un guión para alejar o en las flechas verdes para mapas adyacentes.


METAR-TAF: